createdAt,value
2022-10-04T00:01:53.924Z,3.70
2022-10-04T00:04:40.761Z,4.00
2022-10-04T00:07:18.537Z,3.73
2022-10-04T00:09:49.863Z,3.60
2022-10-04T00:12:28.345Z,4.05
2022-10-04T00:15:02.344Z,4.18
2022-10-04T00:17:37.002Z,4.45
2022-10-04T00:20:41.775Z,3.67
2022-10-04T00:23:23.319Z,3.92
2022-10-04T00:25:52.163Z,4.47
2022-10-04T00:28:21.605Z,4.38
2022-10-04T00:31:13.092Z,4.47
2022-10-04T00:33:47.901Z,4.07
2022-10-04T00:36:26.430Z,4.70
2022-10-04T00:39:04.251Z,5.53
2022-10-04T00:41:51.881Z,4.93
2022-10-04T00:44:27.936Z,4.55
2022-10-04T00:46:56.926Z,4.73
2022-10-04T00:49:29.486Z,5.10
2022-10-04T00:52:10.490Z,5.20
2022-10-04T00:54:44.399Z,5.30
2022-10-04T00:57:32.034Z,4.63
2022-10-04T01:00:03.715Z,4.10
2022-10-04T01:02:46.009Z,4.10
2022-10-04T01:05:26.366Z,4.43
2022-10-04T01:08:04.511Z,4.20
2022-10-04T01:10:42.062Z,4.40
2022-10-04T01:13:22.235Z,3.70
2022-10-04T01:15:59.417Z,4.63
2022-10-04T01:18:25.747Z,4.20
2022-10-04T01:21:21.196Z,3.35
2022-10-04T01:23:57.481Z,3.88
2022-10-04T01:26:26.868Z,3.97
2022-10-04T01:28:59.755Z,4.68
2022-10-04T01:31:27.424Z,5.15
2022-10-04T01:33:55.627Z,5.57
2022-10-04T01:36:22.492Z,5.20
2022-10-04T01:38:49.632Z,5.83
2022-10-04T01:41:19.896Z,5.63
2022-10-04T01:43:52.705Z,5.63
2022-10-04T01:46:27.393Z,5.57
2022-10-04T01:48:57.015Z,5.03
2022-10-04T01:51:33.809Z,5.23
2022-10-04T01:54:05.165Z,5.22
2022-10-04T01:56:46.758Z,5.60
2022-10-04T01:59:25.545Z,5.13
2022-10-04T02:02:07.724Z,5.85
2022-10-04T02:04:38.662Z,5.77
2022-10-04T02:07:12.453Z,5.65
2022-10-04T02:09:43.632Z,5.68
2022-10-04T02:12:16.261Z,5.53
2022-10-04T02:14:53.091Z,5.15
2022-10-04T02:17:30.291Z,5.93
2022-10-04T02:19:58.008Z,6.57
2022-10-04T02:22:25.852Z,6.32
2022-10-04T02:24:54.874Z,6.75
2022-10-04T02:27:27.512Z,6.40
2022-10-04T02:30:04.220Z,5.83
2022-10-04T02:32:50.593Z,6.18
2022-10-04T02:35:18.315Z,6.30
2022-10-04T02:37:45.996Z,6.57
2022-10-04T02:40:16.067Z,6.82
2022-10-04T02:42:57.419Z,5.80
2022-10-04T02:45:33.303Z,6.57
2022-10-04T02:48:12.606Z,7.72
2022-10-04T02:50:50.342Z,6.18
2022-10-04T02:53:26.997Z,7.03
2022-10-04T02:55:55.849Z,7.33
2022-10-04T02:58:25.422Z,8.20
2022-10-04T03:00:58.508Z,7.60
2022-10-04T03:03:28.221Z,7.85
2022-10-04T03:05:57.204Z,7.78
2022-10-04T03:08:24.212Z,7.83
2022-10-04T03:10:50.972Z,7.47
2022-10-04T03:13:20.036Z,7.93
2022-10-04T03:15:49.352Z,8.32
2022-10-04T03:18:16.917Z,7.72
2022-10-04T03:20:43.997Z,7.80
2022-10-04T03:23:12.482Z,8.10
2022-10-04T03:25:51.184Z,8.18
2022-10-04T03:28:18.004Z,7.07
2022-10-04T03:30:46.503Z,6.45
2022-10-04T03:33:21.504Z,7.67
2022-10-04T03:35:51.739Z,7.53
2022-10-04T03:38:19.206Z,8.50
2022-10-04T03:40:52.923Z,7.93
2022-10-04T03:43:24.332Z,7.53
2022-10-04T03:45:52.317Z,7.20
2022-10-04T03:48:28.989Z,7.85
2022-10-04T03:50:56.442Z,7.28
2022-10-04T03:53:30.486Z,7.30
2022-10-04T03:56:03.425Z,7.75
2022-10-04T03:58:31.497Z,7.07
2022-10-04T04:01:10.778Z,7.72
2022-10-04T04:04:00.662Z,7.00
2022-10-04T04:06:34.928Z,7.40
2022-10-04T04:09:04.580Z,8.02
2022-10-04T04:11:31.059Z,8.63
2022-10-04T04:14:17.312Z,7.47
2022-10-04T04:16:43.782Z,7.57
2022-10-04T04:19:13.412Z,7.38
2022-10-04T04:21:41.385Z,7.20
2022-10-04T04:24:19.630Z,6.60
2022-10-04T04:26:49.996Z,7.90
2022-10-04T04:29:26.712Z,7.43
2022-10-04T04:31:59.741Z,7.25
2022-10-04T04:34:34.960Z,8.25
2022-10-04T04:37:04.731Z,7.10
2022-10-04T04:39:40.890Z,7.45
2022-10-04T04:42:10.348Z,7.13
2022-10-04T04:44:40.232Z,6.53
2022-10-04T04:47:10.147Z,6.35
2022-10-04T04:49:40.148Z,6.63
2022-10-04T04:52:16.773Z,6.70
2022-10-04T04:54:46.940Z,6.50
2022-10-04T04:57:17.304Z,6.70
2022-10-04T04:59:47.793Z,6.60
2022-10-04T05:02:28.993Z,6.47
2022-10-04T05:05:34.448Z,6.43
2022-10-04T05:08:20.648Z,6.70
2022-10-04T05:10:57.990Z,6.63
2022-10-04T05:13:33.595Z,7.43
2022-10-04T05:16:01.185Z,6.73
2022-10-04T05:18:30.673Z,7.28
2022-10-04T05:21:03.755Z,6.85
2022-10-04T05:23:30.274Z,7.07
2022-10-04T05:26:00.167Z,6.82
2022-10-04T05:28:27.105Z,7.47
2022-10-04T05:31:02.254Z,7.28
2022-10-04T05:33:44.661Z,8.85
2022-10-04T05:36:11.150Z,9.00
2022-10-04T05:38:57.613Z,8.63
2022-10-04T05:41:47.346Z,8.90
2022-10-04T05:44:26.307Z,7.60
2022-10-04T05:46:58.727Z,8.45
2022-10-04T05:49:28.478Z,8.35
2022-10-04T05:52:00.916Z,9.40
2022-10-04T05:54:31.288Z,9.13
2022-10-04T05:57:10.826Z,8.88
2022-10-04T06:00:00.510Z,9.20
2022-10-04T06:02:48.121Z,10.55
2022-10-04T06:05:26.923Z,9.00
2022-10-04T06:08:01.978Z,8.57
2022-10-04T06:10:57.381Z,9.20
2022-10-04T06:13:36.051Z,9.75
2022-10-04T06:16:30.321Z,8.32
2022-10-04T06:19:29.717Z,8.88
2022-10-04T06:22:16.995Z,8.97
2022-10-04T06:24:51.594Z,8.27
2022-10-04T06:27:27.084Z,9.07
2022-10-04T06:30:04.998Z,8.38
2022-10-04T06:32:49.733Z,8.65
2022-10-04T06:35:32.403Z,9.10
2022-10-04T06:38:08.734Z,9.38
2022-10-04T06:40:54.127Z,9.45
2022-10-04T06:44:00.283Z,7.95
2022-10-04T06:46:49.867Z,9.10
2022-10-04T06:49:44.964Z,9.40
2022-10-04T06:52:25.371Z,9.40
2022-10-04T06:55:23.399Z,8.88
2022-10-04T06:58:13.807Z,8.57
2022-10-04T07:01:29.692Z,9.73
2022-10-04T07:04:20.500Z,9.33
2022-10-04T07:07:15.856Z,9.25
2022-10-04T07:09:43.595Z,8.80
2022-10-04T07:12:16.434Z,8.90
2022-10-04T07:14:51.957Z,9.02
2022-10-04T07:17:26.907Z,8.03
2022-10-04T07:19:54.564Z,8.18
2022-10-04T07:22:42.020Z,9.52
2022-10-04T07:25:24.208Z,8.98
2022-10-04T07:28:27.371Z,8.48
2022-10-04T07:31:05.304Z,8.47
2022-10-04T07:33:54.605Z,8.25
2022-10-04T07:36:43.211Z,8.70
2022-10-04T07:39:22.006Z,9.15
2022-10-04T07:41:54.569Z,9.80
2022-10-04T07:44:34.028Z,7.97
2022-10-04T07:47:09.249Z,7.32
2022-10-04T07:49:39.414Z,7.55
2022-10-04T07:52:28.545Z,7.78
2022-10-04T07:55:07.134Z,7.40
2022-10-04T07:57:55.261Z,8.60
2022-10-04T08:00:41.500Z,6.28
2022-10-04T08:03:46.436Z,6.97
2022-10-04T08:06:26.440Z,6.47
2022-10-04T08:09:26.620Z,6.53
2022-10-04T08:12:06.658Z,7.43
2022-10-04T08:14:39.404Z,6.03
2022-10-04T08:17:31.074Z,6.50
2022-10-04T08:20:25.308Z,6.47
2022-10-04T08:23:22.628Z,5.82
2022-10-04T08:26:07.627Z,5.70
2022-10-04T08:29:34.728Z,6.18
2022-10-04T08:32:13.184Z,5.88
2022-10-04T08:34:45.433Z,5.20
2022-10-04T08:37:38.029Z,5.65
2022-10-04T08:40:13.600Z,5.00
2022-10-04T08:42:45.955Z,5.25
2022-10-04T08:45:48.158Z,5.22
2022-10-04T08:48:39.274Z,4.57
2022-10-04T08:51:08.548Z,4.88
2022-10-04T08:53:53.527Z,4.97
2022-10-04T08:56:38.637Z,7.13
2022-10-04T08:59:39.858Z,4.78
2022-10-04T09:02:30.707Z,4.63
2022-10-04T09:05:32.365Z,5.10
2022-10-04T09:08:30.416Z,4.30
2022-10-04T09:11:15.380Z,4.88
2022-10-04T09:14:09.674Z,4.75
2022-10-04T09:16:46.600Z,5.20
2022-10-04T09:19:38.962Z,4.50
2022-10-04T09:22:40.834Z,4.83
2022-10-04T09:25:29.318Z,6.47
2022-10-04T09:28:20.960Z,5.43
2022-10-04T09:30:56.243Z,4.93
2022-10-04T09:34:04.339Z,4.75
2022-10-04T09:37:01.902Z,4.00
2022-10-04T09:39:48.832Z,4.35
2022-10-04T09:42:33.546Z,4.60
2022-10-04T09:45:06.245Z,4.13
2022-10-04T09:47:40.984Z,4.45
2022-10-04T09:50:37.321Z,4.40
2022-10-04T09:53:19.998Z,4.47
2022-10-04T09:56:07.747Z,5.25
2022-10-04T09:59:13.536Z,4.13
2022-10-04T10:02:29.017Z,4.65
2022-10-04T10:05:31.584Z,4.80
2022-10-04T10:08:03.979Z,4.20
2022-10-04T10:11:14.748Z,5.03
2022-10-04T10:13:59.607Z,4.57
2022-10-04T10:16:40.769Z,4.65
2022-10-04T10:19:37.418Z,4.80
2022-10-04T10:22:40.249Z,4.50
2022-10-04T10:25:38.946Z,5.00
2022-10-04T10:28:20.276Z,3.92
2022-10-04T10:31:08.590Z,5.80
2022-10-04T10:33:53.048Z,4.57
2022-10-04T10:36:51.924Z,3.97
2022-10-04T10:39:33.134Z,6.50
2022-10-04T10:42:38.798Z,4.95
2022-10-04T10:45:35.394Z,3.88
2022-10-04T10:48:13.353Z,4.50
2022-10-04T10:51:10.352Z,4.07
2022-10-04T10:53:43.903Z,4.07
2022-10-04T10:56:13.178Z,3.92
2022-10-04T10:59:08.846Z,3.97
2022-10-04T11:01:50.493Z,4.30
2022-10-04T11:04:45.800Z,3.72
2022-10-04T11:07:43.683Z,3.80
2022-10-04T11:10:19.066Z,3.85
2022-10-04T11:13:08.747Z,4.32
2022-10-04T11:16:07.694Z,3.70
2022-10-04T11:18:58.518Z,3.55
2022-10-04T11:21:36.631Z,3.40
2022-10-04T11:24:28.783Z,2.80
2022-10-04T11:26:55.805Z,2.80
2022-10-04T11:29:25.136Z,3.30
2022-10-04T11:32:00.462Z,3.42
2022-10-04T11:35:12.487Z,4.03
2022-10-04T11:38:06.670Z,3.40
2022-10-04T11:40:54.544Z,3.38
2022-10-04T11:43:36.435Z,5.33
2022-10-04T11:46:23.846Z,3.17
2022-10-04T11:49:06.085Z,3.08
2022-10-04T11:52:02.149Z,3.17
2022-10-04T11:54:47.702Z,5.57
2022-10-04T11:57:38.317Z,3.77
2022-10-04T12:00:18.062Z,4.93
2022-10-04T12:03:14.429Z,4.07
2022-10-04T12:06:03.853Z,3.50
2022-10-04T12:09:09.349Z,3.80
2022-10-04T12:12:28.079Z,3.47
2022-10-04T12:15:30.154Z,4.10
2022-10-04T12:18:17.833Z,3.65
2022-10-04T12:21:13.673Z,3.65
2022-10-04T12:24:09.102Z,3.50
2022-10-04T12:26:52.687Z,2.73
2022-10-04T12:29:45.193Z,3.10
2022-10-04T12:32:35.307Z,2.83
2022-10-04T12:35:19.445Z,2.40
2022-10-04T12:38:08.422Z,2.80
2022-10-04T12:40:48.826Z,3.43
2022-10-04T12:43:40.102Z,2.83
2022-10-04T12:46:12.513Z,2.90
2022-10-04T12:49:08.572Z,3.20
2022-10-04T12:51:34.817Z,2.70
2022-10-04T12:54:13.441Z,2.80
2022-10-04T12:57:04.000Z,2.67
2022-10-04T12:59:43.641Z,2.85
2022-10-04T13:02:35.084Z,2.90
2022-10-04T13:05:13.944Z,3.80
2022-10-04T13:08:18.309Z,2.17
2022-10-04T13:11:09.482Z,2.22
2022-10-04T13:14:01.107Z,2.70
2022-10-04T13:20:06.428Z,2.55
2022-10-04T13:22:56.426Z,2.93
2022-10-04T13:25:41.277Z,2.63
2022-10-04T13:28:31.813Z,2.63
2022-10-04T13:31:23.842Z,2.50
2022-10-04T13:34:09.351Z,2.30
2022-10-04T13:37:14.013Z,2.70
2022-10-04T13:39:53.424Z,2.22
2022-10-04T13:42:33.325Z,2.40
2022-10-04T13:45:21.552Z,3.03
2022-10-04T13:48:09.249Z,2.92
2022-10-04T13:50:58.943Z,4.10
2022-10-04T13:53:53.990Z,2.97
2022-10-04T13:56:40.111Z,3.30
2022-10-04T13:59:18.600Z,3.28
2022-10-04T14:02:29.754Z,2.85
2022-10-04T14:05:10.600Z,3.00
2022-10-04T14:08:14.813Z,3.17
2022-10-04T14:10:53.289Z,2.88
2022-10-04T14:13:50.561Z,3.00
2022-10-04T14:16:41.743Z,2.67
2022-10-04T14:19:30.584Z,3.20
2022-10-04T14:22:09.037Z,3.20
2022-10-04T14:24:35.443Z,3.10
2022-10-04T14:27:24.834Z,3.05
2022-10-04T14:30:09.914Z,2.90
2022-10-04T14:32:45.793Z,2.90
2022-10-04T14:35:12.066Z,2.53
2022-10-04T14:37:57.369Z,3.10
2022-10-04T14:40:45.406Z,2.80
2022-10-04T14:43:30.512Z,2.97
2022-10-04T14:46:25.012Z,2.90
2022-10-04T14:48:59.241Z,3.72
2022-10-04T14:51:32.215Z,2.97
2022-10-04T14:54:26.814Z,3.30
2022-10-04T14:57:04.064Z,2.78
2022-10-04T15:00:15.728Z,2.50
2022-10-04T15:03:03.005Z,2.83
2022-10-04T15:05:44.308Z,2.85
2022-10-04T15:08:24.234Z,2.80
2022-10-04T15:11:16.833Z,3.10
2022-10-04T15:13:55.802Z,2.80
2022-10-04T15:16:31.033Z,2.45
2022-10-04T15:19:04.031Z,2.72
2022-10-04T15:21:50.991Z,2.40
2022-10-04T15:24:17.493Z,2.72
2022-10-04T15:26:59.093Z,2.87
2022-10-04T15:29:32.837Z,2.80
2022-10-04T15:32:16.727Z,1.88
2022-10-04T15:35:06.697Z,2.80
2022-10-04T15:37:49.841Z,2.63
2022-10-04T15:40:25.113Z,2.83
2022-10-04T15:43:20.468Z,3.08
2022-10-04T15:46:00.779Z,3.25
2022-10-04T15:48:53.781Z,2.60
2022-10-04T15:51:41.520Z,2.45
2022-10-04T15:54:13.736Z,2.50
2022-10-04T15:56:39.985Z,2.80
2022-10-04T15:59:28.639Z,2.70
2022-10-04T16:02:21.218Z,2.83
2022-10-04T16:05:14.045Z,2.60
2022-10-04T16:08:02.032Z,2.50
2022-10-04T16:10:58.414Z,2.92
2022-10-04T16:13:39.061Z,2.75
2022-10-04T16:16:17.894Z,2.47
2022-10-04T16:18:51.276Z,2.42
2022-10-04T16:21:42.612Z,3.20
2022-10-04T16:24:45.547Z,2.50
2022-10-04T16:27:26.696Z,3.17
2022-10-04T16:30:27.191Z,2.47
2022-10-04T16:33:26.780Z,3.00
2022-10-04T16:36:20.456Z,2.47
2022-10-04T16:39:07.985Z,2.40
2022-10-04T16:41:41.259Z,2.47
2022-10-04T16:44:28.998Z,3.83
2022-10-04T16:47:00.124Z,2.80
2022-10-04T16:49:41.241Z,2.60
2022-10-04T16:52:35.112Z,2.80
2022-10-04T16:55:24.075Z,3.42
2022-10-04T16:58:27.296Z,3.08
2022-10-04T17:01:29.579Z,3.13
2022-10-04T17:04:14.767Z,3.00
2022-10-04T17:06:54.261Z,2.67
2022-10-04T17:10:05.824Z,3.20
2022-10-04T17:13:00.123Z,3.00
2022-10-04T17:15:48.484Z,3.03
2022-10-04T17:18:38.442Z,3.20
2022-10-04T17:21:22.776Z,3.25
2022-10-04T17:24:38.680Z,3.65
2022-10-04T17:27:56.266Z,3.38
2022-10-04T17:30:26.344Z,3.30
2022-10-04T17:32:58.563Z,3.93
2022-10-04T17:36:02.265Z,3.10
2022-10-04T17:38:44.633Z,3.65
2022-10-04T17:41:10.891Z,3.30
2022-10-04T17:43:55.904Z,3.40
2022-10-04T17:46:29.281Z,3.50
2022-10-04T17:49:20.537Z,3.97
2022-10-04T17:52:08.261Z,3.40
2022-10-04T17:55:16.615Z,3.60
2022-10-04T17:58:23.137Z,3.67
2022-10-04T18:01:19.215Z,3.07
2022-10-04T18:03:52.347Z,3.78
2022-10-04T18:06:43.030Z,3.60
2022-10-04T18:09:30.767Z,3.45
2022-10-04T18:12:04.986Z,3.83
2022-10-04T18:15:21.021Z,3.77
2022-10-04T18:17:50.547Z,3.83
2022-10-04T18:20:29.209Z,3.53
2022-10-04T18:23:01.581Z,3.42
2022-10-04T18:25:31.073Z,3.65
2022-10-04T18:28:09.624Z,3.23
2022-10-04T18:30:48.452Z,3.90
2022-10-04T18:33:25.904Z,3.80
2022-10-04T18:36:24.606Z,3.25
2022-10-04T18:39:21.886Z,4.10
2022-10-04T18:42:16.172Z,3.43
2022-10-04T18:45:18.656Z,3.78
2022-10-04T18:47:45.148Z,3.70
2022-10-04T18:50:17.844Z,3.30
2022-10-04T18:53:13.473Z,4.03
2022-10-04T18:56:04.465Z,3.80
2022-10-04T18:58:58.647Z,3.75
2022-10-04T19:01:59.843Z,3.78
2022-10-04T19:04:42.666Z,4.20
2022-10-04T19:07:14.131Z,3.97
2022-10-04T19:09:52.798Z,3.97
2022-10-04T19:12:25.658Z,3.95
2022-10-04T19:15:00.505Z,3.70
2022-10-04T19:17:38.156Z,3.90
2022-10-04T19:20:18.700Z,3.83
2022-10-04T19:23:07.119Z,4.40
2022-10-04T19:25:40.904Z,3.75
2022-10-04T19:28:18.442Z,3.70
2022-10-04T19:31:31.525Z,3.80
2022-10-04T19:34:11.679Z,3.60
2022-10-04T19:36:46.257Z,3.33
2022-10-04T19:39:51.563Z,4.07
2022-10-04T19:42:39.668Z,4.15
2022-10-04T19:45:25.741Z,4.35
2022-10-04T19:48:12.698Z,4.30
2022-10-04T19:50:52.065Z,3.90
2022-10-04T19:53:23.499Z,3.70
2022-10-04T19:55:56.986Z,3.45
2022-10-04T19:58:37.789Z,3.92
2022-10-04T20:01:11.689Z,4.00
2022-10-04T20:03:38.669Z,4.23
2022-10-04T20:06:07.385Z,3.75
2022-10-04T20:08:52.617Z,3.83
2022-10-04T20:11:25.773Z,3.50
2022-10-04T20:14:07.132Z,3.75
2022-10-04T20:16:49.738Z,3.50
2022-10-04T20:19:45.603Z,4.15
2022-10-04T20:22:11.875Z,3.67
2022-10-04T20:24:38.218Z,3.72
2022-10-04T20:27:28.250Z,3.28
2022-10-04T20:29:55.977Z,3.30
2022-10-04T20:32:34.169Z,4.10
2022-10-04T20:35:02.772Z,3.65
2022-10-04T20:37:44.223Z,3.28
2022-10-04T20:40:31.505Z,3.67
2022-10-04T20:43:13.176Z,3.27
2022-10-04T20:45:46.370Z,3.70
2022-10-04T20:48:18.417Z,3.70
2022-10-04T20:50:49.272Z,4.10
2022-10-04T20:53:20.867Z,3.38
2022-10-04T20:55:48.143Z,3.43
2022-10-04T20:58:35.145Z,3.33
2022-10-04T21:01:31.535Z,3.65
2022-10-04T21:04:34.045Z,3.65
2022-10-04T21:07:05.908Z,4.00
2022-10-04T21:09:34.333Z,3.33
2022-10-04T21:12:01.725Z,3.70
2022-10-04T21:14:27.989Z,3.92
2022-10-04T21:17:02.208Z,3.42
2022-10-04T21:19:32.315Z,3.55
2022-10-04T21:22:01.291Z,3.30
2022-10-04T21:24:40.733Z,3.58
2022-10-04T21:27:12.838Z,3.28
2022-10-04T21:29:39.674Z,3.33
2022-10-04T21:32:06.170Z,3.67
2022-10-04T21:34:52.479Z,3.47
2022-10-04T21:37:19.622Z,3.42
2022-10-04T21:39:46.057Z,3.78
2022-10-04T21:42:12.484Z,3.90
2022-10-04T21:44:38.822Z,3.28
2022-10-04T21:47:05.212Z,3.47
2022-10-04T21:49:31.529Z,3.55
2022-10-04T21:51:57.837Z,3.50
2022-10-04T21:54:24.183Z,3.50
2022-10-04T21:56:50.540Z,3.92
2022-10-04T21:59:16.856Z,4.00
2022-10-04T22:01:43.175Z,4.00
2022-10-04T22:04:09.510Z,3.67
2022-10-04T22:06:35.876Z,3.97
2022-10-04T22:09:02.212Z,4.00
2022-10-04T22:11:28.595Z,4.00
2022-10-04T22:13:54.924Z,3.70
2022-10-04T22:16:21.318Z,3.60
2022-10-04T22:18:47.736Z,4.40
2022-10-04T22:21:14.525Z,4.10
2022-10-04T22:23:43.260Z,4.00
2022-10-04T22:26:12.186Z,4.25
2022-10-04T22:28:43.056Z,4.30
2022-10-04T22:31:14.576Z,4.35
2022-10-04T22:33:43.500Z,4.30
2022-10-04T22:36:31.243Z,4.13
2022-10-04T22:38:58.725Z,4.28
2022-10-04T22:41:33.816Z,4.22
2022-10-04T22:44:10.203Z,4.90
2022-10-04T22:46:40.634Z,4.45
2022-10-04T22:49:12.224Z,4.67
2022-10-04T22:51:41.324Z,4.68
2022-10-04T22:54:12.967Z,4.22
2022-10-04T22:56:40.395Z,4.82
2022-10-04T22:59:10.799Z,5.13
2022-10-04T23:01:37.927Z,4.40
2022-10-04T23:04:11.841Z,5.07
2022-10-04T23:06:38.141Z,4.63
2022-10-04T23:09:04.475Z,4.57
2022-10-04T23:11:31.936Z,4.60
2022-10-04T23:13:58.499Z,4.30
2022-10-04T23:16:25.152Z,5.38
2022-10-04T23:19:00.533Z,4.82
2022-10-04T23:21:31.753Z,4.63
2022-10-04T23:24:05.441Z,4.75
2022-10-04T23:26:37.136Z,5.30
2022-10-04T23:29:06.986Z,4.53
2022-10-04T23:31:36.955Z,4.90
2022-10-04T23:34:16.284Z,4.70
2022-10-04T23:36:42.629Z,5.15
2022-10-04T23:39:13.732Z,5.03
2022-10-04T23:41:40.281Z,5.13
2022-10-04T23:44:13.167Z,5.30
2022-10-04T23:46:39.656Z,4.63
2022-10-04T23:49:09.204Z,4.80
2022-10-04T23:51:35.733Z,5.07
2022-10-04T23:54:02.077Z,4.60
2022-10-04T23:56:29.432Z,4.82
2022-10-04T23:58:58.595Z,4.47
